sensor_id;sensor_type;location;lat;lon;timestamp;P1;durP1;ratioP1;P2;durP2;ratioP2
44304;SDS011;30019;50.576;8.568;2024-03-22T00:01:47;50.20;;;27.48;;
44304;SDS011;30019;50.576;8.568;2024-03-22T00:04:15;46.33;;;26.20;;
44304;SDS011;30019;50.576;8.568;2024-03-22T00:06:41;40.80;;;24.80;;
44304;SDS011;30019;50.576;8.568;2024-03-22T00:09:07;34.40;;;19.23;;
44304;SDS011;30019;50.576;8.568;2024-03-22T00:11:33;28.13;;;17.52;;
44304;SDS011;30019;50.576;8.568;2024-03-22T00:14:01;32.67;;;18.42;;
44304;SDS011;30019;50.576;8.568;2024-03-22T00:16:27;28.60;;;18.98;;
44304;SDS011;30019;50.576;8.568;2024-03-22T00:18:53;28.27;;;18.10;;
44304;SDS011;30019;50.576;8.568;2024-03-22T00:21:19;29.67;;;18.42;;
44304;SDS011;30019;50.576;8.568;2024-03-22T00:23:45;26.95;;;17.60;;
44304;SDS011;30019;50.576;8.568;2024-03-22T00:26:11;30.88;;;18.88;;
44304;SDS011;30019;50.576;8.568;2024-03-22T00:28:37;34.97;;;20.52;;
44304;SDS011;30019;50.576;8.568;2024-03-22T00:31:03;32.17;;;19.85;;
44304;SDS011;30019;50.576;8.568;2024-03-22T00:33:29;29.58;;;19.50;;
44304;SDS011;30019;50.576;8.568;2024-03-22T00:35:56;32.83;;;19.83;;
44304;SDS011;30019;50.576;8.568;2024-03-22T00:38:22;36.97;;;21.05;;
44304;SDS011;30019;50.576;8.568;2024-03-22T00:40:48;37.97;;;22.55;;
44304;SDS011;30019;50.576;8.568;2024-03-22T00:43:14;35.53;;;19.02;;
44304;SDS011;30019;50.576;8.568;2024-03-22T00:45:40;28.95;;;18.90;;
44304;SDS011;30019;50.576;8.568;2024-03-22T00:48:06;32.65;;;19.40;;
44304;SDS011;30019;50.576;8.568;2024-03-22T00:50:32;36.05;;;21.42;;
44304;SDS011;30019;50.576;8.568;2024-03-22T00:52:59;35.38;;;19.70;;
44304;SDS011;30019;50.576;8.568;2024-03-22T00:55:27;29.30;;;18.73;;
44304;SDS011;30019;50.576;8.568;2024-03-22T00:57:53;33.45;;;20.38;;
44304;SDS011;30019;50.576;8.568;2024-03-22T01:00:19;35.65;;;20.60;;
44304;SDS011;30019;50.576;8.568;2024-03-22T01:02:45;38.53;;;22.23;;
44304;SDS011;30019;50.576;8.568;2024-03-22T01:05:11;36.83;;;20.67;;
44304;SDS011;30019;50.576;8.568;2024-03-22T01:07:37;46.33;;;23.88;;
44304;SDS011;30019;50.576;8.568;2024-03-22T01:10:04;45.47;;;24.20;;
44304;SDS011;30019;50.576;8.568;2024-03-22T01:12:30;53.00;;;27.92;;
44304;SDS011;30019;50.576;8.568;2024-03-22T01:14:56;51.47;;;26.17;;
44304;SDS011;30019;50.576;8.568;2024-03-22T01:17:23;52.53;;;27.80;;
44304;SDS011;30019;50.576;8.568;2024-03-22T01:19:49;55.00;;;28.38;;
44304;SDS011;30019;50.576;8.568;2024-03-22T01:22:15;58.08;;;29.88;;
44304;SDS011;30019;50.576;8.568;2024-03-22T01:24:41;56.60;;;29.35;;
44304;SDS011;30019;50.576;8.568;2024-03-22T01:27:07;60.97;;;29.10;;
44304;SDS011;30019;50.576;8.568;2024-03-22T01:29:33;60.40;;;29.73;;
44304;SDS011;30019;50.576;8.568;2024-03-22T01:32:00;60.00;;;29.38;;
44304;SDS011;30019;50.576;8.568;2024-03-22T01:34:26;62.88;;;29.92;;
44304;SDS011;30019;50.576;8.568;2024-03-22T01:36:52;61.53;;;31.50;;
44304;SDS011;30019;50.576;8.568;2024-03-22T01:39:19;62.00;;;30.55;;
44304;SDS011;30019;50.576;8.568;2024-03-22T01:41:49;55.55;;;29.90;;
44304;SDS011;30019;50.576;8.568;2024-03-22T01:44:15;58.50;;;30.85;;
44304;SDS011;30019;50.576;8.568;2024-03-22T01:46:42;58.67;;;29.63;;
44304;SDS011;30019;50.576;8.568;2024-03-22T01:49:09;65.30;;;32.08;;
44304;SDS011;30019;50.576;8.568;2024-03-22T01:51:35;59.72;;;31.08;;
44304;SDS011;30019;50.576;8.568;2024-03-22T01:54:01;62.90;;;31.40;;
44304;SDS011;30019;50.576;8.568;2024-03-22T01:56:28;60.25;;;29.88;;
44304;SDS011;30019;50.576;8.568;2024-03-22T01:58:54;60.67;;;27.88;;
44304;SDS011;30019;50.576;8.568;2024-03-22T02:01:20;62.25;;;31.52;;
44304;SDS011;30019;50.576;8.568;2024-03-22T02:03:46;62.80;;;31.10;;
44304;SDS011;30019;50.576;8.568;2024-03-22T02:06:12;63.92;;;31.45;;
44304;SDS011;30019;50.576;8.568;2024-03-22T02:08:39;67.10;;;33.92;;
44304;SDS011;30019;50.576;8.568;2024-03-22T02:11:07;62.55;;;32.03;;
44304;SDS011;30019;50.576;8.568;2024-03-22T02:13:33;59.92;;;29.58;;
44304;SDS011;30019;50.576;8.568;2024-03-22T02:15:59;60.85;;;32.22;;
44304;SDS011;30019;50.576;8.568;2024-03-22T02:18:29;63.03;;;31.63;;
44304;SDS011;30019;50.576;8.568;2024-03-22T02:20:56;70.70;;;31.70;;
44304;SDS011;30019;50.576;8.568;2024-03-22T02:23:26;67.53;;;32.28;;
44304;SDS011;30019;50.576;8.568;2024-03-22T02:25:52;65.28;;;31.50;;
44304;SDS011;30019;50.576;8.568;2024-03-22T02:28:18;65.65;;;31.08;;
44304;SDS011;30019;50.576;8.568;2024-03-22T02:30:44;70.22;;;33.10;;
44304;SDS011;30019;50.576;8.568;2024-03-22T02:33:10;68.00;;;33.13;;
44304;SDS011;30019;50.576;8.568;2024-03-22T02:35:36;67.90;;;32.28;;
44304;SDS011;30019;50.576;8.568;2024-03-22T02:38:02;68.78;;;31.52;;
44304;SDS011;30019;50.576;8.568;2024-03-22T02:40:28;66.53;;;32.42;;
44304;SDS011;30019;50.576;8.568;2024-03-22T02:42:54;66.63;;;32.75;;
44304;SDS011;30019;50.576;8.568;2024-03-22T02:45:20;69.70;;;32.83;;
44304;SDS011;30019;50.576;8.568;2024-03-22T02:47:46;66.03;;;31.33;;
44304;SDS011;30019;50.576;8.568;2024-03-22T02:50:12;70.40;;;33.03;;
44304;SDS011;30019;50.576;8.568;2024-03-22T02:52:38;70.97;;;33.60;;
44304;SDS011;30019;50.576;8.568;2024-03-22T02:55:04;70.63;;;32.60;;
44304;SDS011;30019;50.576;8.568;2024-03-22T02:57:30;67.70;;;32.33;;
44304;SDS011;30019;50.576;8.568;2024-03-22T02:59:56;73.60;;;33.13;;
44304;SDS011;30019;50.576;8.568;2024-03-22T03:02:22;78.53;;;32.63;;
44304;SDS011;30019;50.576;8.568;2024-03-22T03:04:48;66.45;;;32.80;;
44304;SDS011;30019;50.576;8.568;2024-03-22T03:07:14;64.55;;;31.52;;
44304;SDS011;30019;50.576;8.568;2024-03-22T03:09:40;61.75;;;30.50;;
44304;SDS011;30019;50.576;8.568;2024-03-22T03:12:06;62.72;;;29.85;;
44304;SDS011;30019;50.576;8.568;2024-03-22T03:14:32;56.80;;;26.80;;
44304;SDS011;30019;50.576;8.568;2024-03-22T03:16:58;55.08;;;28.40;;
44304;SDS011;30019;50.576;8.568;2024-03-22T03:19:24;71.45;;;31.30;;
44304;SDS011;30019;50.576;8.568;2024-03-22T03:21:50;63.10;;;29.80;;
44304;SDS011;30019;50.576;8.568;2024-03-22T03:24:16;63.28;;;31.02;;
44304;SDS011;30019;50.576;8.568;2024-03-22T03:26:42;57.58;;;27.65;;
44304;SDS011;30019;50.576;8.568;2024-03-22T03:29:08;54.55;;;26.40;;
44304;SDS011;30019;50.576;8.568;2024-03-22T03:31:34;58.65;;;27.77;;
44304;SDS011;30019;50.576;8.568;2024-03-22T03:34:00;57.40;;;27.98;;
44304;SDS011;30019;50.576;8.568;2024-03-22T03:36:26;63.78;;;29.98;;
44304;SDS011;30019;50.576;8.568;2024-03-22T03:38:52;68.20;;;30.48;;
44304;SDS011;30019;50.576;8.568;2024-03-22T03:41:18;70.55;;;31.77;;
44304;SDS011;30019;50.576;8.568;2024-03-22T03:43:44;70.10;;;32.97;;
44304;SDS011;30019;50.576;8.568;2024-03-22T03:46:10;61.05;;;28.50;;
44304;SDS011;30019;50.576;8.568;2024-03-22T03:48:36;60.45;;;29.10;;
44304;SDS011;30019;50.576;8.568;2024-03-22T03:51:02;53.78;;;25.98;;
44304;SDS011;30019;50.576;8.568;2024-03-22T03:53:29;58.67;;;28.98;;
44304;SDS011;30019;50.576;8.568;2024-03-22T03:55:55;58.30;;;30.15;;
44304;SDS011;30019;50.576;8.568;2024-03-22T03:58:21;46.33;;;25.23;;
44304;SDS011;30019;50.576;8.568;2024-03-22T04:00:47;61.30;;;29.05;;
44304;SDS011;30019;50.576;8.568;2024-03-22T04:03:13;61.25;;;28.35;;
44304;SDS011;30019;50.576;8.568;2024-03-22T04:05:39;62.25;;;30.45;;
44304;SDS011;30019;50.576;8.568;2024-03-22T04:08:05;58.60;;;28.30;;
44304;SDS011;30019;50.576;8.568;2024-03-22T04:10:31;64.28;;;27.65;;
44304;SDS011;30019;50.576;8.568;2024-03-22T04:12:57;65.88;;;28.73;;
44304;SDS011;30019;50.576;8.568;2024-03-22T04:15:23;63.53;;;27.77;;
44304;SDS011;30019;50.576;8.568;2024-03-22T04:17:49;54.50;;;25.25;;
44304;SDS011;30019;50.576;8.568;2024-03-22T04:20:16;73.25;;;31.65;;
44304;SDS011;30019;50.576;8.568;2024-03-22T04:22:42;66.13;;;29.95;;
44304;SDS011;30019;50.576;8.568;2024-03-22T04:25:08;63.00;;;29.65;;
44304;SDS011;30019;50.576;8.568;2024-03-22T04:27:37;60.05;;;28.30;;
44304;SDS011;30019;50.576;8.568;2024-03-22T04:30:03;60.58;;;29.70;;
44304;SDS011;30019;50.576;8.568;2024-03-22T04:32:29;61.22;;;30.38;;
44304;SDS011;30019;50.576;8.568;2024-03-22T04:34:55;70.10;;;31.63;;
44304;SDS011;30019;50.576;8.568;2024-03-22T04:37:21;70.22;;;32.30;;
44304;SDS011;30019;50.576;8.568;2024-03-22T04:39:48;69.15;;;33.17;;
44304;SDS011;30019;50.576;8.568;2024-03-22T04:42:14;74.20;;;33.47;;
44304;SDS011;30019;50.576;8.568;2024-03-22T04:44:41;77.25;;;34.67;;
44304;SDS011;30019;50.576;8.568;2024-03-22T04:47:07;69.88;;;32.33;;
44304;SDS011;30019;50.576;8.568;2024-03-22T04:49:33;67.88;;;32.15;;
44304;SDS011;30019;50.576;8.568;2024-03-22T04:51:59;70.75;;;33.70;;
44304;SDS011;30019;50.576;8.568;2024-03-22T04:54:25;78.78;;;34.75;;
44304;SDS011;30019;50.576;8.568;2024-03-22T04:56:51;73.88;;;34.38;;
44304;SDS011;30019;50.576;8.568;2024-03-22T04:59:17;85.40;;;36.30;;
44304;SDS011;30019;50.576;8.568;2024-03-22T05:01:43;85.50;;;37.22;;
44304;SDS011;30019;50.576;8.568;2024-03-22T05:04:09;79.55;;;36.58;;
44304;SDS011;30019;50.576;8.568;2024-03-22T05:06:35;75.75;;;34.40;;
44304;SDS011;30019;50.576;8.568;2024-03-22T05:09:01;78.00;;;35.90;;
44304;SDS011;30019;50.576;8.568;2024-03-22T05:11:28;68.53;;;32.25;;
44304;SDS011;30019;50.576;8.568;2024-03-22T05:13:55;68.35;;;32.25;;
44304;SDS011;30019;50.576;8.568;2024-03-22T05:16:21;70.30;;;31.85;;
44304;SDS011;30019;50.576;8.568;2024-03-22T05:18:48;71.30;;;31.67;;
44304;SDS011;30019;50.576;8.568;2024-03-22T05:21:14;68.50;;;31.67;;
44304;SDS011;30019;50.576;8.568;2024-03-22T05:23:40;66.38;;;32.45;;
44304;SDS011;30019;50.576;8.568;2024-03-22T05:26:07;62.47;;;31.52;;
44304;SDS011;30019;50.576;8.568;2024-03-22T05:28:33;62.50;;;31.65;;
44304;SDS011;30019;50.576;8.568;2024-03-22T05:30:59;61.17;;;31.25;;
44304;SDS011;30019;50.576;8.568;2024-03-22T05:33:25;64.72;;;32.63;;
44304;SDS011;30019;50.576;8.568;2024-03-22T05:35:51;69.90;;;31.40;;
44304;SDS011;30019;50.576;8.568;2024-03-22T05:38:17;66.60;;;30.67;;
44304;SDS011;30019;50.576;8.568;2024-03-22T05:40:43;59.53;;;30.58;;
44304;SDS011;30019;50.576;8.568;2024-03-22T05:43:12;65.35;;;32.40;;
44304;SDS011;30019;50.576;8.568;2024-03-22T05:45:38;65.78;;;31.80;;
44304;SDS011;30019;50.576;8.568;2024-03-22T05:48:04;63.45;;;31.33;;
44304;SDS011;30019;50.576;8.568;2024-03-22T05:50:31;62.60;;;32.70;;
44304;SDS011;30019;50.576;8.568;2024-03-22T05:52:57;71.60;;;33.53;;
44304;SDS011;30019;50.576;8.568;2024-03-22T05:55:23;68.75;;;32.22;;
44304;SDS011;30019;50.576;8.568;2024-03-22T05:57:52;69.95;;;32.53;;
44304;SDS011;30019;50.576;8.568;2024-03-22T06:00:18;56.40;;;30.27;;
44304;SDS011;30019;50.576;8.568;2024-03-22T06:02:44;59.63;;;31.83;;
44304;SDS011;30019;50.576;8.568;2024-03-22T06:05:10;62.85;;;31.98;;
44304;SDS011;30019;50.576;8.568;2024-03-22T06:07:36;61.72;;;31.58;;
44304;SDS011;30019;50.576;8.568;2024-03-22T06:10:07;69.68;;;32.70;;
44304;SDS011;30019;50.576;8.568;2024-03-22T06:12:34;64.50;;;35.15;;
44304;SDS011;30019;50.576;8.568;2024-03-22T06:15:01;64.80;;;34.35;;
44304;SDS011;30019;50.576;8.568;2024-03-22T06:17:30;63.33;;;34.97;;
44304;SDS011;30019;50.576;8.568;2024-03-22T06:19:56;72.50;;;35.10;;
44304;SDS011;30019;50.576;8.568;2024-03-22T06:22:21;65.82;;;32.08;;
44304;SDS011;30019;50.576;8.568;2024-03-22T06:24:47;63.00;;;32.60;;
44304;SDS011;30019;50.576;8.568;2024-03-22T06:27:13;62.63;;;31.65;;
44304;SDS011;30019;50.576;8.568;2024-03-22T06:29:40;65.10;;;32.17;;
44304;SDS011;30019;50.576;8.568;2024-03-22T06:32:06;58.67;;;29.80;;
44304;SDS011;30019;50.576;8.568;2024-03-22T06:34:32;61.20;;;30.42;;
44304;SDS011;30019;50.576;8.568;2024-03-22T06:36:58;54.20;;;28.30;;
44304;SDS011;30019;50.576;8.568;2024-03-22T06:39:24;55.63;;;29.05;;
44304;SDS011;30019;50.576;8.568;2024-03-22T06:41:50;58.58;;;29.75;;
44304;SDS011;30019;50.576;8.568;2024-03-22T06:44:16;64.05;;;30.70;;
44304;SDS011;30019;50.576;8.568;2024-03-22T06:46:42;61.90;;;30.90;;
44304;SDS011;30019;50.576;8.568;2024-03-22T06:49:08;57.28;;;31.35;;
44304;SDS011;30019;50.576;8.568;2024-03-22T06:51:34;64.25;;;31.42;;
44304;SDS011;30019;50.576;8.568;2024-03-22T06:54:01;64.88;;;31.58;;
44304;SDS011;30019;50.576;8.568;2024-03-22T06:56:27;67.15;;;35.30;;
44304;SDS011;30019;50.576;8.568;2024-03-22T06:58:53;73.68;;;35.60;;
44304;SDS011;30019;50.576;8.568;2024-03-22T07:01:19;64.35;;;31.05;;
44304;SDS011;30019;50.576;8.568;2024-03-22T07:03:45;57.53;;;31.60;;
44304;SDS011;30019;50.576;8.568;2024-03-22T07:06:13;57.58;;;29.65;;
44304;SDS011;30019;50.576;8.568;2024-03-22T07:08:39;92.53;;;31.92;;
44304;SDS011;30019;50.576;8.568;2024-03-22T07:11:05;63.40;;;29.88;;
44304;SDS011;30019;50.576;8.568;2024-03-22T07:13:31;52.22;;;28.50;;
44304;SDS011;30019;50.576;8.568;2024-03-22T07:15:57;52.40;;;29.02;;
44304;SDS011;30019;50.576;8.568;2024-03-22T07:18:23;53.33;;;30.10;;
44304;SDS011;30019;50.576;8.568;2024-03-22T07:20:49;56.08;;;29.15;;
44304;SDS011;30019;50.576;8.568;2024-03-22T07:23:16;55.97;;;28.50;;
44304;SDS011;30019;50.576;8.568;2024-03-22T07:25:42;55.78;;;29.02;;
44304;SDS011;30019;50.576;8.568;2024-03-22T07:28:10;53.40;;;28.80;;
44304;SDS011;30019;50.576;8.568;2024-03-22T07:30:36;54.17;;;28.08;;
44304;SDS011;30019;50.576;8.568;2024-03-22T07:33:03;54.47;;;28.42;;
44304;SDS011;30019;50.576;8.568;2024-03-22T07:35:29;56.63;;;28.75;;
44304;SDS011;30019;50.576;8.568;2024-03-22T07:37:55;51.47;;;28.10;;
44304;SDS011;30019;50.576;8.568;2024-03-22T07:40:21;49.63;;;27.85;;
44304;SDS011;30019;50.576;8.568;2024-03-22T07:42:47;53.05;;;27.90;;
44304;SDS011;30019;50.576;8.568;2024-03-22T07:45:13;46.65;;;26.58;;
44304;SDS011;30019;50.576;8.568;2024-03-22T07:47:39;50.20;;;28.25;;
44304;SDS011;30019;50.576;8.568;2024-03-22T07:50:07;47.03;;;26.27;;
44304;SDS011;30019;50.576;8.568;2024-03-22T07:52:33;49.28;;;26.25;;
44304;SDS011;30019;50.576;8.568;2024-03-22T07:54:59;52.35;;;27.10;;
44304;SDS011;30019;50.576;8.568;2024-03-22T07:57:27;46.92;;;27.25;;
44304;SDS011;30019;50.576;8.568;2024-03-22T07:59:55;45.60;;;26.70;;
44304;SDS011;30019;50.576;8.568;2024-03-22T08:02:21;45.30;;;27.27;;
44304;SDS011;30019;50.576;8.568;2024-03-22T08:04:47;51.35;;;28.75;;
44304;SDS011;30019;50.576;8.568;2024-03-22T08:07:13;49.53;;;27.35;;
44304;SDS011;30019;50.576;8.568;2024-03-22T08:09:39;45.90;;;26.08;;
44304;SDS011;30019;50.576;8.568;2024-03-22T08:12:06;48.35;;;26.88;;
44304;SDS011;30019;50.576;8.568;2024-03-22T08:14:32;46.58;;;26.58;;
44304;SDS011;30019;50.576;8.568;2024-03-22T08:16:58;46.15;;;27.42;;
44304;SDS011;30019;50.576;8.568;2024-03-22T08:19:24;53.83;;;28.92;;
44304;SDS011;30019;50.576;8.568;2024-03-22T08:21:50;48.15;;;26.35;;
44304;SDS011;30019;50.576;8.568;2024-03-22T08:24:18;47.38;;;26.77;;
44304;SDS011;30019;50.576;8.568;2024-03-22T08:26:44;46.78;;;26.33;;
44304;SDS011;30019;50.576;8.568;2024-03-22T08:29:12;42.97;;;25.88;;
44304;SDS011;30019;50.576;8.568;2024-03-22T08:31:39;48.13;;;26.35;;
44304;SDS011;30019;50.576;8.568;2024-03-22T08:34:05;42.90;;;25.83;;
44304;SDS011;30019;50.576;8.568;2024-03-22T08:36:31;44.58;;;26.40;;
44304;SDS011;30019;50.576;8.568;2024-03-22T08:38:57;51.33;;;31.80;;
44304;SDS011;30019;50.576;8.568;2024-03-22T08:41:23;40.97;;;26.02;;
44304;SDS011;30019;50.576;8.568;2024-03-22T08:43:49;40.88;;;25.08;;
44304;SDS011;30019;50.576;8.568;2024-03-22T08:46:15;41.28;;;25.40;;
44304;SDS011;30019;50.576;8.568;2024-03-22T08:48:42;44.50;;;26.13;;
44304;SDS011;30019;50.576;8.568;2024-03-22T08:51:08;41.50;;;25.90;;
44304;SDS011;30019;50.576;8.568;2024-03-22T08:53:34;40.35;;;23.83;;
44304;SDS011;30019;50.576;8.568;2024-03-22T08:56:00;41.35;;;23.80;;
44304;SDS011;30019;50.576;8.568;2024-03-22T08:58:26;46.85;;;25.88;;
44304;SDS011;30019;50.576;8.568;2024-03-22T09:00:52;42.47;;;24.50;;
44304;SDS011;30019;50.576;8.568;2024-03-22T09:03:18;42.65;;;25.45;;
44304;SDS011;30019;50.576;8.568;2024-03-22T09:05:46;48.60;;;25.80;;
44304;SDS011;30019;50.576;8.568;2024-03-22T09:08:12;37.13;;;23.85;;
44304;SDS011;30019;50.576;8.568;2024-03-22T09:10:38;41.42;;;24.13;;
44304;SDS011;30019;50.576;8.568;2024-03-22T09:13:04;39.58;;;24.60;;
44304;SDS011;30019;50.576;8.568;2024-03-22T09:15:31;38.78;;;22.08;;
44304;SDS011;30019;50.576;8.568;2024-03-22T09:17:57;36.22;;;22.25;;
44304;SDS011;30019;50.576;8.568;2024-03-22T09:20:23;33.83;;;21.23;;
44304;SDS011;30019;50.576;8.568;2024-03-22T09:22:49;33.35;;;19.65;;
44304;SDS011;30019;50.576;8.568;2024-03-22T09:25:15;33.78;;;20.70;;
44304;SDS011;30019;50.576;8.568;2024-03-22T09:27:41;36.38;;;22.60;;
44304;SDS011;30019;50.576;8.568;2024-03-22T09:30:07;41.10;;;20.98;;
44304;SDS011;30019;50.576;8.568;2024-03-22T09:32:34;50.53;;;21.45;;
44304;SDS011;30019;50.576;8.568;2024-03-22T09:35:00;36.85;;;22.08;;
44304;SDS011;30019;50.576;8.568;2024-03-22T09:37:27;29.02;;;20.08;;
44304;SDS011;30019;50.576;8.568;2024-03-22T09:39:53;31.55;;;20.90;;
44304;SDS011;30019;50.576;8.568;2024-03-22T09:42:19;31.63;;;19.52;;
44304;SDS011;30019;50.576;8.568;2024-03-22T09:44:50;31.30;;;19.13;;
44304;SDS011;30019;50.576;8.568;2024-03-22T09:47:17;30.45;;;19.45;;
44304;SDS011;30019;50.576;8.568;2024-03-22T09:49:43;30.90;;;18.05;;
44304;SDS011;30019;50.576;8.568;2024-03-22T09:52:11;26.77;;;17.67;;
44304;SDS011;30019;50.576;8.568;2024-03-22T09:54:38;24.65;;;16.17;;
44304;SDS011;30019;50.576;8.568;2024-03-22T09:57:05;34.05;;;18.30;;
44304;SDS011;30019;50.576;8.568;2024-03-22T09:59:33;165.32;;;24.45;;
44304;SDS011;30019;50.576;8.568;2024-03-22T10:01:59;34.15;;;16.50;;
44304;SDS011;30019;50.576;8.568;2024-03-22T10:04:27;28.48;;;16.45;;
44304;SDS011;30019;50.576;8.568;2024-03-22T10:06:53;25.55;;;15.57;;
44304;SDS011;30019;50.576;8.568;2024-03-22T10:09:19;25.52;;;15.50;;
44304;SDS011;30019;50.576;8.568;2024-03-22T10:11:54;22.00;;;15.25;;
44304;SDS011;30019;50.576;8.568;2024-03-22T10:14:20;88.20;;;17.52;;
44304;SDS011;30019;50.576;8.568;2024-03-22T10:16:46;83.80;;;16.85;;
44304;SDS011;30019;50.576;8.568;2024-03-22T10:19:12;26.42;;;15.68;;
44304;SDS011;30019;50.576;8.568;2024-03-22T10:21:38;12.07;;;9.32;;
44304;SDS011;30019;50.576;8.568;2024-03-22T10:24:04;15.05;;;10.07;;
44304;SDS011;30019;50.576;8.568;2024-03-22T10:26:32;13.98;;;9.57;;
44304;SDS011;30019;50.576;8.568;2024-03-22T10:28:58;13.95;;;9.25;;
44304;SDS011;30019;50.576;8.568;2024-03-22T10:31:24;14.48;;;9.45;;
44304;SDS011;30019;50.576;8.568;2024-03-22T10:33:51;12.13;;;8.65;;
44304;SDS011;30019;50.576;8.568;2024-03-22T10:36:18;14.73;;;9.40;;
44304;SDS011;30019;50.576;8.568;2024-03-22T10:38:45;11.98;;;10.07;;
44304;SDS011;30019;50.576;8.568;2024-03-22T10:41:12;10.13;;;8.02;;
44304;SDS011;30019;50.576;8.568;2024-03-22T10:43:38;13.90;;;8.43;;
44304;SDS011;30019;50.576;8.568;2024-03-22T10:46:04;17.90;;;10.18;;
44304;SDS011;30019;50.576;8.568;2024-03-22T10:48:31;11.10;;;8.73;;
44304;SDS011;30019;50.576;8.568;2024-03-22T10:50:59;12.32;;;9.23;;
44304;SDS011;30019;50.576;8.568;2024-03-22T10:53:26;12.88;;;8.90;;
44304;SDS011;30019;50.576;8.568;2024-03-22T10:55:52;9.00;;;8.07;;
44304;SDS011;30019;50.576;8.568;2024-03-22T10:58:23;14.73;;;8.68;;
44304;SDS011;30019;50.576;8.568;2024-03-22T11:00:53;9.90;;;8.82;;
44304;SDS011;30019;50.576;8.568;2024-03-22T11:03:24;10.63;;;9.60;;
44304;SDS011;30019;50.576;8.568;2024-03-22T11:05:54;12.18;;;9.13;;
44304;SDS011;30019;50.576;8.568;2024-03-22T11:08:24;15.75;;;9.95;;
44304;SDS011;30019;50.576;8.568;2024-03-22T11:10:51;12.20;;;9.05;;
44304;SDS011;30019;50.576;8.568;2024-03-22T11:13:17;10.93;;;9.00;;
44304;SDS011;30019;50.576;8.568;2024-03-22T11:15:43;12.70;;;9.25;;
44304;SDS011;30019;50.576;8.568;2024-03-22T11:18:09;11.55;;;9.40;;
44304;SDS011;30019;50.576;8.568;2024-03-22T11:20:36;10.18;;;8.82;;
44304;SDS011;30019;50.576;8.568;2024-03-22T11:23:03;15.07;;;8.88;;
44304;SDS011;30019;50.576;8.568;2024-03-22T11:25:31;16.58;;;9.07;;
44304;SDS011;30019;50.576;8.568;2024-03-22T11:27:57;14.07;;;9.52;;
44304;SDS011;30019;50.576;8.568;2024-03-22T11:30:24;12.10;;;9.43;;
44304;SDS011;30019;50.576;8.568;2024-03-22T11:32:50;14.20;;;9.57;;
44304;SDS011;30019;50.576;8.568;2024-03-22T11:35:16;12.57;;;8.77;;
44304;SDS011;30019;50.576;8.568;2024-03-22T11:37:42;16.95;;;9.10;;
44304;SDS011;30019;50.576;8.568;2024-03-22T11:40:09;12.77;;;9.50;;
44304;SDS011;30019;50.576;8.568;2024-03-22T11:42:36;13.38;;;8.88;;
44304;SDS011;30019;50.576;8.568;2024-03-22T11:45:02;13.95;;;9.75;;
44304;SDS011;30019;50.576;8.568;2024-03-22T11:47:28;15.93;;;10.70;;
44304;SDS011;30019;50.576;8.568;2024-03-22T11:49:55;11.32;;;8.85;;
44304;SDS011;30019;50.576;8.568;2024-03-22T11:52:24;10.27;;;8.82;;
44304;SDS011;30019;50.576;8.568;2024-03-22T11:54:51;11.30;;;9.18;;
44304;SDS011;30019;50.576;8.568;2024-03-22T11:57:18;10.88;;;8.18;;
44304;SDS011;30019;50.576;8.568;2024-03-22T11:59:44;16.65;;;8.45;;
44304;SDS011;30019;50.576;8.568;2024-03-22T12:02:10;11.57;;;8.05;;
44304;SDS011;30019;50.576;8.568;2024-03-22T12:04:40;10.77;;;7.50;;
44304;SDS011;30019;50.576;8.568;2024-03-22T12:07:08;10.40;;;7.53;;
44304;SDS011;30019;50.576;8.568;2024-03-22T12:09:34;9.90;;;7.50;;
44304;SDS011;30019;50.576;8.568;2024-03-22T12:12:00;11.00;;;8.00;;
44304;SDS011;30019;50.576;8.568;2024-03-22T12:14:26;10.75;;;7.07;;
44304;SDS011;30019;50.576;8.568;2024-03-22T12:16:52;9.98;;;7.65;;
44304;SDS011;30019;50.576;8.568;2024-03-22T12:19:18;8.30;;;6.95;;
44304;SDS011;30019;50.576;8.568;2024-03-22T12:21:44;8.98;;;6.40;;
44304;SDS011;30019;50.576;8.568;2024-03-22T12:24:10;7.28;;;5.75;;
44304;SDS011;30019;50.576;8.568;2024-03-22T12:26:36;7.35;;;6.28;;
44304;SDS011;30019;50.576;8.568;2024-03-22T12:29:02;9.80;;;6.03;;
44304;SDS011;30019;50.576;8.568;2024-03-22T12:31:29;9.52;;;6.50;;
44304;SDS011;30019;50.576;8.568;2024-03-22T12:33:55;13.50;;;6.10;;
44304;SDS011;30019;50.576;8.568;2024-03-22T12:36:21;9.52;;;6.63;;
44304;SDS011;30019;50.576;8.568;2024-03-22T12:38:47;9.32;;;6.25;;
44304;SDS011;30019;50.576;8.568;2024-03-22T12:41:13;10.20;;;8.07;;
44304;SDS011;30019;50.576;8.568;2024-03-22T12:43:39;10.48;;;6.15;;
44304;SDS011;30019;50.576;8.568;2024-03-22T12:46:07;7.47;;;6.65;;
44304;SDS011;30019;50.576;8.568;2024-03-22T12:48:33;10.05;;;6.68;;
44304;SDS011;30019;50.576;8.568;2024-03-22T12:50:59;9.02;;;6.43;;
44304;SDS011;30019;50.576;8.568;2024-03-22T12:53:25;9.52;;;6.38;;
44304;SDS011;30019;50.576;8.568;2024-03-22T12:55:51;10.90;;;7.38;;
44304;SDS011;30019;50.576;8.568;2024-03-22T12:58:18;8.75;;;6.68;;
44304;SDS011;30019;50.576;8.568;2024-03-22T13:00:44;11.13;;;7.43;;
44304;SDS011;30019;50.576;8.568;2024-03-22T13:03:10;12.82;;;7.32;;
44304;SDS011;30019;50.576;8.568;2024-03-22T13:05:36;9.23;;;7.25;;
44304;SDS011;30019;50.576;8.568;2024-03-22T13:08:02;9.45;;;7.55;;
44304;SDS011;30019;50.576;8.568;2024-03-22T13:10:28;10.80;;;6.85;;
44304;SDS011;30019;50.576;8.568;2024-03-22T13:12:55;8.82;;;7.72;;
44304;SDS011;30019;50.576;8.568;2024-03-22T13:15:21;12.30;;;9.10;;
44304;SDS011;30019;50.576;8.568;2024-03-22T13:17:47;13.98;;;7.68;;
44304;SDS011;30019;50.576;8.568;2024-03-22T13:20:13;9.48;;;6.88;;
44304;SDS011;30019;50.576;8.568;2024-03-22T13:22:40;8.75;;;7.05;;
44304;SDS011;30019;50.576;8.568;2024-03-22T13:25:06;11.63;;;8.18;;
44304;SDS011;30019;50.576;8.568;2024-03-22T13:27:35;10.88;;;7.68;;
44304;SDS011;30019;50.576;8.568;2024-03-22T13:30:01;9.20;;;7.70;;
44304;SDS011;30019;50.576;8.568;2024-03-22T13:32:27;12.00;;;8.13;;
44304;SDS011;30019;50.576;8.568;2024-03-22T13:34:53;15.70;;;9.38;;
44304;SDS011;30019;50.576;8.568;2024-03-22T13:37:19;16.13;;;9.00;;
44304;SDS011;30019;50.576;8.568;2024-03-22T13:39:48;14.88;;;8.02;;
44304;SDS011;30019;50.576;8.568;2024-03-22T13:42:15;11.77;;;8.80;;
44304;SDS011;30019;50.576;8.568;2024-03-22T13:44:41;12.70;;;8.98;;
44304;SDS011;30019;50.576;8.568;2024-03-22T13:47:07;15.10;;;9.50;;
44304;SDS011;30019;50.576;8.568;2024-03-22T13:49:34;15.60;;;9.85;;
44304;SDS011;30019;50.576;8.568;2024-03-22T13:52:00;13.63;;;9.52;;
44304;SDS011;30019;50.576;8.568;2024-03-22T13:54:26;14.50;;;9.57;;
44304;SDS011;30019;50.576;8.568;2024-03-22T13:56:52;13.98;;;9.45;;
44304;SDS011;30019;50.576;8.568;2024-03-22T13:59:18;15.80;;;9.48;;
44304;SDS011;30019;50.576;8.568;2024-03-22T14:01:44;11.52;;;10.10;;
44304;SDS011;30019;50.576;8.568;2024-03-22T14:04:12;17.65;;;11.05;;
44304;SDS011;30019;50.576;8.568;2024-03-22T14:06:40;13.88;;;9.75;;
44304;SDS011;30019;50.576;8.568;2024-03-22T14:09:06;10.73;;;9.18;;
44304;SDS011;30019;50.576;8.568;2024-03-22T14:11:35;17.48;;;10.85;;
44304;SDS011;30019;50.576;8.568;2024-03-22T14:14:01;11.50;;;9.18;;
44304;SDS011;30019;50.576;8.568;2024-03-22T14:16:27;13.32;;;8.90;;
44304;SDS011;30019;50.576;8.568;2024-03-22T14:18:53;16.73;;;9.25;;
44304;SDS011;30019;50.576;8.568;2024-03-22T14:21:19;13.75;;;9.55;;